Time;durP1;ratioP1;P1;durP2;ratioP2;P2;SDS_P1;SDS_P2;PMS_P1;PMS_P2;Temp;Humidity;BMP_temperature;BMP_pressure;BME280_temperature;BME280_humidity;BME280_pressure;Samples;Min_cycle;Max_cycle;Signal;HPM_P1;HPM_P2
2023/05/17 00:01:16;;;;;;;1999.90;999.90;;;;;;;9.48;100.00;95285.47;5000139;28;20226;-61
2023/05/17 00:03:42;;;;;;;1999.90;999.90;;;;;;;9.45;100.00;95290.94;4999739;28;20199;-61
2023/05/17 00:06:07;;;;;;;1999.90;999.90;;;;;;;9.47;100.00;95294.81;5000386;28;20264;-61
2023/05/17 00:08:32;;;;;;;1999.90;999.90;;;;;;;9.41;100.00;95296.44;4999846;28;20199;-60
2023/05/17 00:10:58;;;;;;;1999.90;999.90;;;;;;;9.38;100.00;95305.41;5000217;28;20208;-61
2023/05/17 00:13:23;;;;;;;1999.90;999.90;;;;;;;9.48;100.00;95310.00;4999916;28;20253;-60
2023/05/17 00:15:49;;;;;;;1999.90;999.90;;;;;;;9.41;100.00;95318.22;4999836;28;20215;-60
2023/05/17 00:18:14;;;;;;;1999.90;999.90;;;;;;;9.41;100.00;95323.69;4999454;28;20184;-61
2023/05/17 00:20:39;;;;;;;1999.90;999.90;;;;;;;9.48;100.00;95323.63;4999300;28;20202;-60
2023/05/17 00:23:05;;;;;;;1999.90;999.90;;;;;;;9.47;100.00;95332.22;5000025;28;20286;-60
2023/05/17 00:25:30;;;;;;;1999.90;999.90;;;;;;;9.39;100.00;95336.91;4999531;28;20205;-60
2023/05/17 00:27:55;;;;;;;1999.90;999.90;;;;;;;9.33;100.00;95343.94;4999339;28;20199;-60
2023/05/17 00:30:21;;;;;;;1999.90;999.90;;;;;;;9.36;100.00;95340.44;4999478;28;20210;-60
2023/05/17 00:32:47;;;;;;;1999.90;999.90;;;;;;;9.33;100.00;95349.38;4999384;28;20270;-60
2023/05/17 00:35:12;;;;;;;1999.90;999.90;;;;;;;9.36;100.00;95337.69;4999120;28;20216;-61
2023/05/17 00:37:38;;;;;;;1999.90;999.90;;;;;;;9.25;100.00;95347.13;4999252;28;20199;-59
2023/05/17 00:40:04;;;;;;;1999.90;999.90;;;;;;;9.33;100.00;95345.91;4999425;28;20218;-58
2023/05/17 00:42:30;;;;;;;1999.90;999.90;;;;;;;9.31;100.00;95343.56;4999121;28;20203;-59
2023/05/17 00:44:55;;;;;;;1999.90;999.90;;;;;;;9.33;100.00;95349.38;4999269;28;20268;-59
2023/05/17 00:47:21;;;;;;;1999.90;999.90;;;;;;;9.28;100.00;95347.09;4998861;28;20202;-63
2023/05/17 00:49:46;;;;;;;1999.90;999.90;;;;;;;9.32;100.00;95347.84;4999016;28;20167;-58
2023/05/17 00:52:12;;;;;;;1999.90;999.90;;;;;;;9.30;100.00;95350.22;4998268;28;20206;-60
2023/05/17 00:54:38;;;;;;;1999.90;999.90;;;;;;;9.27;100.00;95351.00;4998817;28;20200;-59
2023/05/17 00:57:05;;;;;;;1999.90;999.90;;;;;;;9.23;100.00;95357.63;4998969;28;20221;-59
2023/05/17 00:59:31;;;;;;;1999.90;999.90;;;;;;;9.25;100.00;95352.56;4998875;28;20285;-59
2023/05/17 01:01:57;;;;;;;1999.90;999.90;;;;;;;9.23;100.00;95350.22;4998862;28;20226;-59
2023/05/17 01:04:23;;;;;;;1999.90;999.90;;;;;;;9.20;100.00;95356.47;4998773;28;20203;-59
2023/05/17 01:06:49;;;;;;;1999.90;999.90;;;;;;;9.19;100.00;95360.38;4999111;28;20207;-58
2023/05/17 01:09:15;;;;;;;1999.90;999.90;;;;;;;9.21;100.00;95360.72;4998581;28;20188;-60
2023/05/17 01:12:10;;;;;;;1999.90;999.90;;;;;;;9.22;100.00;95370.44;4998575;28;20230;-58
2023/05/17 01:15:05;;;;;;;1999.90;999.90;;;;;;;9.10;100.00;95365.44;4970354;28;20207;-59
2023/05/17 01:17:50;;;;;;;1999.90;999.90;;;;;;;9.16;100.00;95372.06;4998365;28;20270;-59
2023/05/17 01:20:36;;;;;;;1999.90;999.90;;;;;;;9.12;100.00;95365.84;4982416;28;20202;-58
2023/05/17 01:23:20;;;;;;;1999.90;999.90;;;;;;;9.14;100.00;95368.16;4998939;28;20221;-58
2023/05/17 01:26:09;;;;;;;1999.90;999.90;;;;;;;9.17;100.00;95372.81;4998895;28;20175;-60
2023/05/17 01:28:37;;;;;;;1999.90;999.90;;;;;;;9.14;100.00;95379.06;4997933;28;20211;-60
2023/05/17 01:31:04;;;;;;;1999.90;999.90;;;;;;;9.11;100.00;95391.50;4998291;28;20202;-60
2023/05/17 01:33:30;;;;;;;1999.90;999.90;;;;;;;9.09;100.00;95393.88;4998427;28;20207;-61
2023/05/17 01:35:55;;;;;;;1999.90;999.90;;;;;;;9.12;100.00;95386.84;4998378;28;20269;-60
2023/05/17 01:38:21;;;;;;;1999.90;999.90;;;;;;;9.07;100.00;95396.19;4998153;28;20294;-60
2023/05/17 01:41:29;;;;;;;1999.90;999.90;;;;;;;9.04;100.00;95396.97;4998407;28;20237;-60
2023/05/17 01:44:22;;;;;;;1999.90;999.90;;;;;;;9.11;100.00;95394.22;4960994;28;20233;-61
2023/05/17 01:46:52;;;;;;;1999.90;999.90;;;;;;;9.10;100.00;95395.41;4997902;28;20203;-60
2023/05/17 01:49:23;;;;;;;1999.90;999.90;;;;;;;9.12;100.00;95403.19;4997664;28;20229;-59
2023/05/17 01:52:02;;;;;;;1999.90;999.90;;;;;;;9.12;100.00;95401.25;4998298;28;20199;-59
2023/05/17 01:54:32;;;;;;;1999.90;999.90;;;;;;;9.08;100.00;95396.97;4998052;28;20210;-60
2023/05/17 01:56:58;;;;;;;1999.90;999.90;;;;;;;9.02;100.00;95393.88;4997955;28;20214;-60
2023/05/17 01:59:24;;;;;;;1999.90;999.90;;;;;;;9.00;100.00;95398.94;4997549;28;20199;-60
2023/05/17 02:01:56;;;;;;;1999.90;999.90;;;;;;;9.05;100.00;95398.53;4998204;28;20250;-60
2023/05/17 02:04:21;;;;;;;1999.90;999.90;;;;;;;9.01;100.00;95403.22;4997775;28;20264;-60
2023/05/17 02:06:46;;;;;;;1999.90;999.90;;;;;;;9.04;100.00;95398.94;4998358;28;20294;-60
2023/05/17 02:09:12;;;;;;;1999.90;999.90;;;;;;;9.02;100.00;95402.03;4997810;28;20322;-59
2023/05/17 02:11:37;;;;;;;1999.90;999.90;;;;;;;9.06;100.00;95400.09;4997654;28;20195;-60
2023/05/17 02:14:02;;;;;;;1999.90;999.90;;;;;;;8.98;100.00;95398.56;4997651;28;20221;-59
2023/05/17 02:16:27;;;;;;;1999.90;999.90;;;;;;;9.02;100.00;95393.09;4997554;28;20567;-60
2023/05/17 02:18:53;;;;;;;1999.90;999.90;;;;;;;8.97;100.00;95396.22;4997632;28;20227;-60
2023/05/17 02:21:18;;;;;;;1999.90;999.90;;;;;;;8.99;100.00;95389.22;4997329;28;20210;-60
2023/05/17 02:23:43;;;;;;;1999.90;999.90;;;;;;;8.97;100.00;95396.22;4997488;28;20199;-60
2023/05/17 02:26:09;;;;;;;1999.90;999.90;;;;;;;8.92;100.00;95400.13;4997635;28;20191;-60
2023/05/17 02:28:34;;;;;;;1999.90;999.90;;;;;;;8.94;100.00;95397.78;4997608;28;20222;-60
2023/05/17 02:31:00;;;;;;;1999.90;999.90;;;;;;;8.92;100.00;95393.88;4997775;28;20191;-59
2023/05/17 02:33:25;;;;;;;1999.90;999.90;;;;;;;8.91;100.00;95398.56;4997109;28;20253;-59
2023/05/17 02:35:50;;;;;;;1999.90;999.90;;;;;;;8.86;100.00;95390.78;4997577;28;20233;-61
2023/05/17 02:38:16;;;;;;;1999.90;999.90;;;;;;;8.87;100.00;95386.91;4997444;28;20207;-60
2023/05/17 02:40:41;;;;;;;1999.90;999.90;;;;;;;8.81;100.00;95391.19;4997285;28;20273;-59
2023/05/17 02:43:06;;;;;;;1999.90;999.90;;;;;;;8.81;100.00;95391.19;4997188;28;20230;-60
2023/05/17 02:45:32;;;;;;;1999.90;999.90;;;;;;;8.89;100.00;95398.16;4997162;28;20282;-61
2023/05/17 02:47:57;;;;;;;1999.90;999.90;;;;;;;8.90;100.00;95405.19;4996951;28;20206;-60
2023/05/17 02:50:23;;;;;;;1999.90;999.90;;;;;;;8.83;100.00;95402.47;4997434;28;20191;-60
2023/05/17 02:52:48;;;;;;;1999.90;999.90;;;;;;;8.72;100.00;95412.59;4997328;28;20199;-59
2023/05/17 02:55:13;;;;;;;1999.90;999.90;;;;;;;8.78;100.00;95408.31;4996950;28;20206;-64
2023/05/17 02:57:39;;;;;;;1999.90;999.90;;;;;;;8.77;100.00;95414.13;4997254;28;20202;-61
2023/05/17 03:00:05;;;;;;;1999.90;999.90;;;;;;;8.74;100.00;95415.69;4997661;28;20202;-61
2023/05/17 03:02:31;;;;;;;1999.90;999.90;;;;;;;8.77;100.00;95419.56;4996731;28;20179;-61
2023/05/17 03:04:56;;;;;;;1999.90;999.90;;;;;;;8.70;100.00;95425.81;4997730;28;20204;-60
2023/05/17 03:07:21;;;;;;;1999.90;999.90;;;;;;;8.68;100.00;95433.59;4997423;28;20198;-61
2023/05/17 03:09:46;;;;;;;1999.90;999.90;;;;;;;8.61;100.00;95438.25;4996735;28;20206;-60
2023/05/17 03:12:12;;;;;;;1999.90;999.90;;;;;;;8.71;100.00;95443.69;4996878;28;20195;-60
2023/05/17 03:14:37;;;;;;;1999.90;999.90;;;;;;;8.66;100.00;95441.38;4997081;28;20202;-60
2023/05/17 03:17:03;;;;;;;1999.90;999.90;;;;;;;8.75;100.00;95449.91;5000485;28;20187;-60
2023/05/17 03:19:28;;;;;;;1999.90;999.90;;;;;;;8.74;100.00;95451.09;5000688;28;20198;-60
2023/05/17 03:21:53;;;;;;;1999.90;999.90;;;;;;;8.70;100.00;95463.94;5000382;28;20202;-59
2023/05/17 03:24:19;;;;;;;1999.90;999.90;;;;;;;8.73;100.00;95468.59;4999987;28;20209;-60
2023/05/17 03:26:44;;;;;;;1999.90;999.90;;;;;;;8.71;100.00;95467.44;5001239;28;20187;-61
2023/05/17 03:29:09;;;;;;;1999.90;999.90;;;;;;;8.60;100.00;95464.69;5000861;28;20207;-61
2023/05/17 03:31:35;;;;;;;1999.90;999.90;;;;;;;8.64;100.00;95468.19;5000150;28;20192;-61
2023/05/17 03:34:00;;;;;;;1999.90;999.90;;;;;;;8.68;100.00;95477.16;5000729;28;20187;-60
2023/05/17 03:36:25;;;;;;;1999.90;999.90;;;;;;;8.45;100.00;95479.47;5000377;28;20214;-61
2023/05/17 03:38:51;;;;;;;1999.90;999.90;;;;;;;8.50;100.00;95486.47;5000813;28;20191;-61
2023/05/17 03:41:16;;;;;;;1999.90;999.90;;;;;;;8.54;100.00;95492.69;4999760;28;20207;-58
2023/05/17 03:43:41;;;;;;;1999.90;999.90;;;;;;;8.47;100.00;95498.91;5000516;28;20207;-58
2023/05/17 03:46:07;;;;;;;1999.90;999.90;;;;;;;8.49;100.00;95498.53;4999976;28;20203;-59
2023/05/17 03:48:32;;;;;;;1999.90;999.90;;;;;;;8.47;100.00;95498.91;4999785;28;20228;-60
2023/05/17 03:50:58;;;;;;;1999.90;999.90;;;;;;;8.56;100.00;95506.69;5000122;28;20226;-60
2023/05/17 03:53:23;;;;;;;1999.90;999.90;;;;;;;8.37;100.00;95510.53;5000263;28;20288;-61
2023/05/17 03:55:48;;;;;;;1999.90;999.90;;;;;;;8.33;100.00;95509.75;4999894;28;20211;-61
2023/05/17 03:58:14;;;;;;;1999.90;999.90;;;;;;;8.44;100.00;95520.66;5000096;28;20191;-61
2023/05/17 04:00:39;;;;;;;1999.90;999.90;;;;;;;8.53;100.00;95519.13;4999715;28;20226;-60
2023/05/17 04:03:05;;;;;;;1999.90;999.90;;;;;;;8.58;100.00;95520.69;4999931;28;20199;-65
2023/05/17 04:05:31;;;;;;;1999.90;999.90;;;;;;;8.43;100.00;95530.78;4999759;28;20230;-61
2023/05/17 04:07:57;;;;;;;1999.90;999.90;;;;;;;8.48;100.00;95540.50;5000287;28;20231;-60
2023/05/17 04:10:22;;;;;;;1999.90;999.90;;;;;;;8.40;100.00;95539.72;5000272;28;20218;-60
2023/05/17 04:12:48;;;;;;;1999.90;999.90;;;;;;;8.49;100.00;95550.22;4999507;28;20230;-60
2023/05/17 04:15:14;;;;;;;1999.90;999.90;;;;;;;8.44;100.00;95545.94;5000136;28;20207;-60
2023/05/17 04:17:39;;;;;;;1999.90;999.90;;;;;;;8.43;100.00;95563.44;5000048;28;20206;-60
2023/05/17 04:20:05;;;;;;;1999.90;999.90;;;;;;;8.46;100.00;95559.94;4999874;28;20191;-60
2023/05/17 04:22:31;;;;;;;1999.90;999.90;;;;;;;8.45;100.00;95565.78;4999547;28;20199;-60
2023/05/17 04:24:56;;;;;;;1999.90;999.90;;;;;;;8.26;100.00;95572.31;4999677;28;20231;-59
2023/05/17 04:27:22;;;;;;;1999.90;999.90;;;;;;;8.45;100.00;95566.53;4999122;28;20199;-60
2023/05/17 04:29:47;;;;;;;1999.90;999.90;;;;;;;8.31;100.00;95574.66;4999459;28;20196;-59
2023/05/17 04:32:13;;;;;;;1999.90;999.90;;;;;;;8.40;100.00;95569.63;4999356;28;20203;-59
2023/05/17 04:34:38;;;;;;;1999.90;999.90;;;;;;;8.49;100.00;95583.66;4999154;28;20193;-60
2023/05/17 04:37:04;;;;;;;1999.90;999.90;;;;;;;8.50;100.00;95581.72;4999249;28;20183;-60
2023/05/17 04:39:30;;;;;;;1999.90;999.90;;;;;;;8.53;100.00;95581.72;4999088;28;20267;-60
2023/05/17 04:41:55;;;;;;;1999.90;999.90;;;;;;;8.45;100.00;95587.53;4998925;28;20199;-59
2023/05/17 04:44:20;;;;;;;1999.90;999.90;;;;;;;8.43;100.00;95585.19;4998760;28;20215;-59
2023/05/17 04:46:46;;;;;;;1999.90;999.90;;;;;;;8.49;100.00;95591.06;4999475;28;20212;-59
2023/05/17 04:49:11;;;;;;;1999.90;999.90;;;;;;;8.43;100.00;95596.09;4999169;28;20310;-60
2023/05/17 04:51:37;;;;;;;1999.90;999.90;;;;;;;8.64;100.00;95595.38;4998598;28;20199;-60
2023/05/17 04:54:05;;;;;;;1999.90;999.90;;;;;;;8.69;100.00;95598.50;4998813;28;20246;-60
2023/05/17 04:56:32;;;;;;;1999.90;999.90;;;;;;;8.76;100.00;95595.78;4998989;28;20230;-60
2023/05/17 04:58:57;;;;;;;1999.90;999.90;;;;;;;8.76;100.00;95601.22;4999014;28;20218;-61
2023/05/17 05:01:22;;;;;;;1999.90;999.90;;;;;;;8.71;100.00;95601.59;4999121;28;20194;-60
2023/05/17 05:03:48;;;;;;;1999.90;999.90;;;;;;;8.79;100.00;95607.84;4998639;28;20237;-62
2023/05/17 05:06:15;;;;;;;1999.90;999.90;;;;;;;8.70;100.00;95610.94;4999065;28;20199;-61
2023/05/17 05:08:40;;;;;;;1999.90;999.90;;;;;;;8.88;100.00;95609.03;4998334;28;20190;-62
2023/05/17 05:11:06;;;;;;;1999.90;999.90;;;;;;;8.89;100.00;95612.53;4999001;28;20282;-61
2023/05/17 05:13:31;;;;;;;1999.90;999.90;;;;;;;9.00;100.00;95611.38;4998540;28;20202;-62
2023/05/17 05:15:56;;;;;;;1999.90;999.90;;;;;;;9.08;100.00;95615.69;4998576;28;20226;-61
2023/05/17 05:18:21;;;;;;;1999.90;999.90;;;;;;;8.87;100.00;95626.53;4998584;28;20254;-60
2023/05/17 05:20:47;;;;;;;1999.90;999.90;;;;;;;8.88;100.00;95622.63;4998014;28;20210;-60
2023/05/17 05:23:13;;;;;;;1999.90;999.90;;;;;;;8.89;100.00;95629.63;4998445;28;20196;-60
2023/05/17 05:25:38;;;;;;;1999.90;999.90;;;;;;;8.90;100.00;95625.75;4998253;28;20228;-60
2023/05/17 05:28:04;;;;;;;1999.90;999.90;;;;;;;9.14;100.00;95627.72;4998395;28;20199;-60
2023/05/17 05:30:30;;;;;;;1999.90;999.90;;;;;;;9.36;100.00;95636.72;4998622;28;20286;-60
2023/05/17 05:32:56;;;;;;;1999.90;999.90;;;;;;;9.46;100.00;95633.97;4998391;28;20221;-60
2023/05/17 05:35:27;;;;;;;1999.90;999.90;;;;;;;9.31;100.00;95631.63;4998081;28;20215;-60
2023/05/17 05:37:53;;;;;;;1999.90;999.90;;;;;;;9.19;100.00;95638.25;4998170;28;20215;-60
2023/05/17 05:40:19;;;;;;;1999.90;999.90;;;;;;;9.35;100.00;95629.69;4998454;28;20207;-61
2023/05/17 05:42:44;;;;;;;1999.90;999.90;;;;;;;10.17;100.00;95628.44;4998429;28;20216;-61
2023/05/17 05:45:10;;;;;;;1999.90;999.90;;;;;;;10.43;100.00;95639.66;4997628;28;20195;-63
2023/05/17 05:47:35;;;;;;;1999.90;999.90;;;;;;;10.19;100.00;95634.31;4997625;28;20257;-62
2023/05/17 05:50:00;;;;;;;1999.90;999.90;;;;;;;10.11;100.00;95644.44;4997954;28;20215;-61
2023/05/17 05:52:26;;;;;;;1999.90;999.90;;;;;;;10.89;100.00;95639.47;5015120;28;20207;-61
2023/05/17 05:54:51;;;;;;;1999.90;999.90;;;;;;;11.85;100.00;95643.84;4997647;28;20263;-63
2023/05/17 05:57:16;;;;;;;1999.90;999.90;;;;;;;12.44;100.00;95640.50;4998008;28;20203;-62
2023/05/17 05:59:42;;;;;;;1999.90;999.90;;;;;;;12.91;100.00;95641.50;4997947;28;20255;-60
2023/05/17 06:02:07;;;;;;;1999.90;999.90;;;;;;;13.05;100.00;95641.34;4997788;28;20203;-59
2023/05/17 06:04:32;;;;;;;1999.90;999.90;;;;;;;12.71;100.00;95643.31;4997751;28;20195;-59
2023/05/17 06:06:58;;;;;;;1999.90;999.90;;;;;;;12.68;100.00;95650.38;4997842;28;20227;-61
2023/05/17 06:09:23;;;;;;;1999.90;999.90;;;;;;;12.37;100.00;95654.28;4997746;28;20171;-60
2023/05/17 06:11:52;;;;;;;1999.90;999.90;;;;;;;11.87;100.00;95657.94;4997886;28;20199;-59
2023/05/17 06:14:17;;;;;;;1999.90;999.90;;;;;;;11.95;100.00;95664.88;4997741;28;20238;-59
2023/05/17 06:16:43;;;;;;;1999.90;999.90;;;;;;;11.69;100.00;95670.97;4998058;28;20239;-61
2023/05/17 06:19:08;;;;;;;1999.90;999.90;;;;;;;11.93;100.00;95680.91;4997392;28;20214;-58
2023/05/17 06:21:33;;;;;;;1999.90;999.90;;;;;;;12.35;100.00;95678.53;4997530;28;20274;-59
2023/05/17 06:23:59;;;;;;;1999.90;999.90;;;;;;;12.14;100.00;95686.22;4997705;28;20199;-58
2023/05/17 06:26:24;;;;;;;1999.90;999.90;;;;;;;12.04;100.00;95685.13;4997457;28;20302;-59
2023/05/17 06:28:50;;;;;;;1999.90;999.90;;;;;;;12.02;100.00;95683.97;4997348;28;20195;-59
2023/05/17 06:31:15;;;;;;;1999.90;999.90;;;;;;;12.03;100.00;95691.00;4997395;28;20203;-59
2023/05/17 06:33:40;;;;;;;1999.90;999.90;;;;;;;11.54;100.00;95692.16;4997722;28;20195;-59
2023/05/17 06:36:06;;;;;;;1999.90;999.90;;;;;;;12.12;100.00;95696.78;4997828;28;20222;-59
2023/05/17 06:38:31;;;;;;;1999.90;999.90;;;;;;;12.72;100.00;95683.25;4997364;28;20227;-60
2023/05/17 06:40:57;;;;;;;1999.90;999.90;;;;;;;11.66;100.00;95688.19;4997119;28;20286;-60
2023/05/17 06:43:23;;;;;;;1999.90;999.90;;;;;;;12.24;100.00;95688.06;4997406;28;20256;-60
2023/05/17 06:45:48;;;;;;;1999.90;999.90;;;;;;;12.51;100.00;95699.91;4997590;28;20252;-59
2023/05/17 06:48:14;;;;;;;1999.90;999.90;;;;;;;12.70;100.00;95691.06;4997065;28;20199;-59
2023/05/17 06:50:39;;;;;;;1999.90;999.90;;;;;;;12.61;100.00;95699.78;5000707;28;20203;-59
2023/05/17 06:53:05;;;;;;;1999.90;999.90;;;;;;;13.04;100.00;95700.09;5001718;28;20210;-60
2023/05/17 06:55:30;;;;;;;1999.90;999.90;;;;;;;13.46;100.00;95694.03;5001070;28;20210;-59
2023/05/17 06:57:56;;;;;;;1999.90;999.90;;;;;;;13.87;100.00;95702.81;5000738;28;20211;-59
2023/05/17 07:00:21;;;;;;;1999.90;999.90;;;;;;;14.75;100.00;95702.06;5001074;28;20234;-59
2023/05/17 07:02:47;;;;;;;1999.90;999.90;;;;;;;15.19;100.00;95698.03;5001073;28;20203;-59
2023/05/17 07:05:12;;;;;;;1999.90;999.90;;;;;;;14.99;100.00;95709.06;5001150;28;20213;-59
2023/05/17 07:07:37;;;;;;;1999.90;999.90;;;;;;;13.41;100.00;95710.19;5018674;28;20199;-59
2023/05/17 07:10:04;;;;;;;1999.90;999.90;;;;;;;14.26;100.00;95708.47;5001069;28;20229;-59
2023/05/17 07:12:30;;;;;;;1999.90;999.90;;;;;;;14.49;100.00;95713.19;5000633;28;20210;-59
2023/05/17 07:14:55;;;;;;;1999.90;999.90;;;;;;;14.36;100.00;95718.50;5001472;28;20195;-59
2023/05/17 07:17:20;;;;;;;1999.90;999.90;;;;;;;14.29;100.00;95713.13;5000361;28;20199;-61
2023/05/17 07:19:49;;;;;;;1999.90;999.90;;;;;;;14.29;100.00;95707.63;5000490;28;20195;-59
2023/05/17 07:22:15;;;;;;;1999.90;999.90;;;;;;;14.51;100.00;95716.28;5000511;28;20195;-59
2023/05/17 07:24:41;;;;;;;1999.90;999.90;;;;;;;14.58;100.00;95714.19;5000565;28;20197;-59
2023/05/17 07:27:06;;;;;;;1999.90;999.90;;;;;;;14.46;100.00;95712.03;5000780;28;20206;-59
2023/05/17 07:29:31;;;;;;;1999.90;999.90;;;;;;;14.11;100.00;95718.13;5000535;28;20202;-59
2023/05/17 07:31:57;;;;;;;1999.90;999.90;;;;;;;14.09;100.00;95715.00;5000382;28;20291;-59
2023/05/17 07:34:22;;;;;;;1999.90;999.90;;;;;;;14.33;100.00;95718.56;5000726;28;20282;-60
2023/05/17 07:36:47;;;;;;;1999.90;999.90;;;;;;;14.03;100.00;95733.16;5000460;28;20207;-60
2023/05/17 07:39:13;;;;;;;1999.90;999.90;;;;;;;13.40;100.00;95733.31;5000851;28;20195;-60
2023/05/17 07:41:38;;;;;;;1999.90;999.90;;;;;;;13.32;100.00;95719.69;5000195;28;20182;-59
2023/05/17 07:44:04;;;;;;;1999.90;999.90;;;;;;;13.56;100.00;95726.03;5000024;28;20203;-60
2023/05/17 07:46:29;;;;;;;1999.90;999.90;;;;;;;13.68;100.00;95730.16;5000331;28;20226;-57
2023/05/17 07:48:54;;;;;;;1999.90;999.90;;;;;;;14.47;100.00;95721.84;5000712;28;20248;-60
2023/05/17 07:51:20;;;;;;;1999.90;999.90;;;;;;;15.54;100.00;95730.31;4999827;28;20195;-60
2023/05/17 07:53:45;;;;;;;1999.90;999.90;;;;;;;15.21;100.00;95736.91;4999850;28;20259;-59
2023/05/17 07:56:11;;;;;;;1999.90;999.90;;;;;;;15.14;100.00;95726.03;4999868;28;20346;-60
2023/05/17 07:58:36;;;;;;;1999.90;999.90;;;;;;;15.62;100.00;95738.00;4999701;28;20198;-60
2023/05/17 08:01:01;;;;;;;1999.90;999.90;;;;;;;16.72;100.00;95725.91;4999202;28;20191;-60
2023/05/17 08:03:27;;;;;;;1999.90;999.90;;;;;;;17.22;100.00;95730.84;5000016;28;20195;-59
2023/05/17 08:05:53;;;;;;;1999.90;999.90;;;;;;;17.63;100.00;95722.56;5000094;28;20252;-60
2023/05/17 08:08:19;;;;;;;1999.90;999.90;;;;;;;15.75;100.00;95735.38;4999804;28;20285;-60
2023/05/17 08:10:45;;;;;;;1999.90;999.90;;;;;;;15.41;100.00;95735.72;5000009;28;20207;-61
2023/05/17 08:13:10;;;;;;;1999.90;999.90;;;;;;;13.03;100.00;95734.19;4999552;28;20187;-60
2023/05/17 08:15:36;;;;;;;1999.90;999.90;;;;;;;14.45;100.00;95726.97;5017165;28;20290;-60
2023/05/17 08:18:01;;;;;;;1999.90;999.90;;;;;;;15.26;100.00;95731.66;5000306;28;20211;-60
2023/05/17 08:20:26;;;;;;;1999.90;999.90;;;;;;;16.02;100.00;95728.44;4999488;28;20195;-60
2023/05/17 08:22:52;;;;;;;1999.90;999.90;;;;;;;16.65;100.00;95728.06;4999124;28;20210;-59
2023/05/17 08:25:18;;;;;;;1999.90;999.90;;;;;;;17.84;100.00;95730.97;4999352;28;20202;-59
2023/05/17 08:27:44;;;;;;;1999.90;999.90;;;;;;;16.17;100.00;95735.16;4999229;28;20202;-60
2023/05/17 08:30:10;;;;;;;1999.90;999.90;;;;;;;15.33;100.00;95728.78;4999275;28;20298;-59
2023/05/17 08:32:36;;;;;;;1999.90;999.90;;;;;;;15.70;100.00;95739.41;4999217;28;20231;-59
2023/05/17 08:35:01;;;;;;;1999.90;999.90;;;;;;;16.53;100.00;95748.09;4999723;28;20202;-59
2023/05/17 08:37:27;;;;;;;1999.90;999.90;;;;;;;16.42;100.00;95744.81;4999788;28;20234;-60
2023/05/17 08:39:52;;;;;;;1999.90;999.90;;;;;;;15.97;100.00;95739.19;4999388;28;20230;-59
2023/05/17 08:42:21;;;;;;;1999.90;999.90;;;;;;;16.63;100.00;95753.31;4999247;28;20203;-59
2023/05/17 08:44:46;;;;;;;1999.90;999.90;;;;;;;17.25;93.88;95754.78;4999148;28;20225;-60
2023/05/17 08:47:24;;;;;;;1999.90;999.90;;;;;;;17.41;92.58;95752.78;4999629;28;20199;-60
2023/05/17 08:49:50;;;;;;;1999.90;999.90;;;;;;;18.17;91.55;95745.34;4999347;28;20211;-59
2023/05/17 08:52:16;;;;;;;1999.90;999.90;;;;;;;19.03;79.45;95745.59;4998851;28;20290;-59
2023/05/17 08:54:41;;;;;;;1999.90;999.90;;;;;;;19.69;73.48;95747.16;4999069;28;20231;-61
2023/05/17 08:57:09;;;;;;;1999.90;999.90;;;;;;;18.66;79.69;95755.59;4998438;28;20265;-60
2023/05/17 08:59:35;;;;;;;1999.90;999.90;;;;;;;18.38;79.66;95761.25;4998869;28;20195;-60
2023/05/17 09:02:01;;;;;;;1999.90;999.90;;;;;;;18.31;79.62;95765.00;4998920;28;20191;-60
2023/05/17 09:04:31;;;;;;;1999.90;999.90;;;;;;;18.62;76.48;95759.69;4999318;28;20202;-60
2023/05/17 09:06:57;;;;;;;1999.90;999.90;;;;;;;17.70;83.11;95767.31;4998748;28;20285;-61
2023/05/17 09:09:24;;;;;;;1999.90;999.90;;;;;;;17.31;86.12;95773.16;4998461;28;20221;-61
2023/05/17 09:11:50;;;;;;;1999.90;999.90;;;;;;;17.25;89.30;95774.13;4998285;28;20231;-60
2023/05/17 09:14:16;;;;;;;1999.90;999.90;;;;;;;17.73;88.46;95765.63;4998378;28;20206;-60
2023/05/17 09:16:42;;;;;;;1999.90;999.90;;;;;;;17.77;84.63;95783.66;4999239;28;20207;-60
2023/05/17 09:19:15;;;;;;;1999.90;999.90;;;;;;;19.36;81.06;95778.06;4998278;28;20199;-60
2023/05/17 09:21:45;;;;;;;1999.90;999.90;;;;;;;19.43;70.62;95785.34;4998702;28;20199;-60
2023/05/17 09:24:10;;;;;;;1999.90;999.90;;;;;;;20.86;69.31;95772.59;4998217;28;20223;-60
2023/05/17 09:26:40;;;;;;;1999.90;999.90;;;;;;;21.61;62.49;95766.94;4998316;28;20231;-60
2023/05/17 09:29:13;;;;;;;1999.90;999.90;;;;;;;21.82;63.44;95759.66;4998231;28;20191;-60
2023/05/17 09:31:40;;;;;;;1999.90;999.90;;;;;;;22.17;60.21;95769.13;4998199;28;20195;-61
2023/05/17 09:34:08;;;;;;;1999.90;999.90;;;;;;;21.79;59.20;95772.50;4998012;28;20291;-60
2023/05/17 09:36:38;;;;;;;1999.90;999.90;;;;;;;19.98;62.54;95781.69;4998406;28;20230;-60
2023/05/17 09:39:05;;;;;;;1999.90;999.90;;;;;;;19.23;71.97;95771.00;4997870;28;20225;-60
2023/05/17 09:41:32;;;;;;;1999.90;999.90;;;;;;;17.47;81.24;95781.41;4998213;28;20196;-60
2023/05/17 09:44:02;;;;;;;1999.90;999.90;;;;;;;17.29;87.87;95774.78;4997986;28;20214;-60
2023/05/17 09:46:35;;;;;;;1999.90;999.90;;;;;;;17.92;84.02;95768.22;4997368;28;20207;-60
2023/05/17 09:49:01;;;;;;;1999.90;999.90;;;;;;;17.51;81.39;95773.00;4997883;28;20206;-60
2023/05/17 09:51:32;;;;;;;1999.90;999.90;;;;;;;17.77;88.23;95763.56;4998282;28;20202;-60
2023/05/17 09:53:58;;;;;;;1999.90;999.90;;;;;;;17.74;86.94;95764.44;4998187;28;20349;-60
2023/05/17 09:56:27;;;;;;;1999.90;999.90;;;;;;;16.57;92.32;95768.84;4997700;28;20273;-60
2023/05/17 09:58:52;;;;;;;1999.90;999.90;;;;;;;16.94;85.80;95771.03;4997774;28;20186;-60
2023/05/17 10:01:19;;;;;;;1999.90;999.90;;;;;;;17.35;89.53;95767.53;4997874;28;20195;-60
2023/05/17 10:03:45;;;;;;;1999.90;999.90;;;;;;;17.54;81.92;95769.38;4997662;28;20191;-60
2023/05/17 10:06:11;;;;;;;1999.90;999.90;;;;;;;19.17;77.94;95761.72;4998163;28;20214;-59
2023/05/17 10:08:37;;;;;;;1999.90;999.90;;;;;;;19.36;74.24;95757.88;4997957;28;20191;-60
2023/05/17 10:11:08;;;;;;;1999.90;999.90;;;;;;;17.09;79.89;95772.19;4997221;28;20209;-60
2023/05/17 10:13:53;;;;;;;1999.90;999.90;;;;;;;16.87;88.74;95765.72;4998094;28;20206;-61
2023/05/17 10:16:21;;;;;;;1999.90;999.90;;;;;;;17.35;90.40;95767.53;4997630;28;20214;-60
2023/05/17 10:18:46;;;;;;;1999.90;999.90;;;;;;;17.05;86.88;95765.22;4997744;28;20209;-61
2023/05/17 10:21:13;;;;;;;1999.90;999.90;;;;;;;18.17;81.12;95757.16;4997898;28;20290;-61
2023/05/17 10:23:40;;;;;;;1999.90;999.90;;;;;;;18.73;79.21;95760.09;4997596;28;20241;-61
2023/05/17 10:26:07;;;;;;;1999.90;999.90;;;;;;;18.46;79.96;95754.28;4997829;28;20237;-60
2023/05/17 10:28:34;;;;;;;1999.90;999.90;;;;;;;18.34;77.39;95758.59;4997229;28;20221;-59
2023/05/17 10:31:02;;;;;;;1999.90;999.90;;;;;;;18.35;77.05;95751.09;4997670;28;20206;-60
2023/05/17 10:33:28;;;;;;;1999.90;999.90;;;;;;;18.43;78.59;95749.66;4997267;28;20199;-60
2023/05/17 10:35:54;;;;;;;1999.90;999.90;;;;;;;17.69;77.36;95753.94;4997545;28;20230;-60
2023/05/17 10:38:22;;;;;;;1999.90;999.90;;;;;;;16.07;86.54;95754.69;4997430;28;20282;-62
2023/05/17 10:40:50;;;;;;;1999.90;999.90;;;;;;;16.96;92.78;95752.03;4997364;28;20214;-60
2023/05/17 10:43:17;;;;;;;1999.90;999.90;;;;;;;16.95;90.04;95760.75;4997324;28;20210;-60
2023/05/17 10:45:42;;;;;;;1999.90;999.90;;;;;;;16.68;92.12;95757.53;4997158;28;20281;-60
2023/05/17 10:48:08;;;;;;;1999.90;999.90;;;;;;;16.78;90.02;95762.78;4997839;28;20199;-59
2023/05/17 10:50:37;;;;;;;1999.90;999.90;;;;;;;16.89;91.47;95749.47;4997439;28;20314;-62